Time;durP1;ratioP1;P1;durP2;ratioP2;P2;SDS_P1;SDS_P2;PMS_P1;PMS_P2;Temp;Humidity;BMP_temperature;BMP_pressure;BME280_temperature;BME280_humidity;BME280_pressure;Samples;Min_cycle;Max_cycle;Signal;HPM_P1;HPM_P2
2022/07/11 00:02:11;;;;;;;5.97;1.10;;;;;;;24.33;33.99;98461.69;4975740;28;20062;-78
2022/07/11 00:04:37;;;;;;;2.28;1.00;;;;;;;24.22;34.26;98462.38;4959750;28;20089;-78
2022/07/11 00:07:04;;;;;;;3.33;1.10;;;;;;;24.25;34.49;98448.63;4976201;28;20134;-78
2022/07/11 00:09:29;;;;;;;3.35;1.30;;;;;;;24.29;34.28;98463.16;4959635;28;20027;-78
2022/07/11 00:11:55;;;;;;;2.50;1.08;;;;;;;24.24;34.38;98457.63;4959742;28;20580;-78
2022/07/11 00:14:21;;;;;;;2.38;1.00;;;;;;;24.25;34.18;98452.09;4959717;28;20026;-79
2022/07/11 00:16:47;;;;;;;3.08;1.20;;;;;;;24.32;34.41;98462.72;4943476;28;20490;-78
2022/07/11 00:19:12;;;;;;;2.60;1.20;;;;;;;24.26;33.89;98456.41;4959225;28;20034;-78
2022/07/11 00:21:38;;;;;;;3.00;1.10;;;;;;;24.13;34.15;98435.13;4942820;28;20058;-77
2022/07/11 00:24:04;;;;;;;4.78;1.13;;;;;;;24.23;33.77;98464.84;4943133;28;20063;-78
2022/07/11 00:26:29;;;;;;;3.13;1.10;;;;;;;24.14;34.38;98468.75;4977446;28;20054;-77
2022/07/11 00:28:55;;;;;;;3.63;1.23;;;;;;;24.12;34.45;98468.16;4958995;28;20050;-78
2022/07/11 00:31:21;;;;;;;2.92;1.05;;;;;;;24.13;34.37;98464.44;4959730;28;20031;-78
2022/07/11 00:33:46;;;;;;;1.98;1.00;;;;;;;24.08;34.05;98453.59;4959187;28;20368;-78
2022/07/11 00:36:12;;;;;;;7.50;1.40;;;;;;;24.03;34.19;98456.91;4943238;28;20042;-78
2022/07/11 00:38:37;;;;;;;2.30;1.00;;;;;;;24.06;34.42;98455.69;4975792;28;20536;-78
2022/07/11 00:41:03;;;;;;;3.17;1.20;;;;;;;24.02;33.94;98455.25;4942155;28;20051;-79
2022/07/11 00:43:38;;;;;;;2.35;1.08;;;;;;;24.07;33.73;98459.97;4976055;28;20026;-78
2022/07/11 00:46:04;;;;;;;3.83;1.13;;;;;;;24.04;34.33;98458.56;4959496;28;20077;-79
2022/07/11 00:48:30;;;;;;;3.20;1.20;;;;;;;24.04;34.05;98461.22;4951230;28;20085;-78
2022/07/11 00:50:56;;;;;;;1.55;1.00;;;;;;;24.03;34.41;98459.56;4959305;28;20027;-78
2022/07/11 00:53:22;;;;;;;3.08;1.00;;;;;;;24.02;34.21;98461.44;4958751;28;20063;-78
2022/07/11 00:55:47;;;;;;;1.65;0.95;;;;;;;23.88;33.78;98465.16;4957959;28;20074;-78
2022/07/11 00:58:13;;;;;;;2.20;1.25;;;;;;;23.83;34.35;98460.47;4942543;28;20030;-78
2022/07/11 01:00:39;;;;;;;4.05;1.33;;;;;;;23.84;34.40;98461.28;4958809;28;20050;-78
2022/07/11 01:03:04;;;;;;;1.95;1.20;;;;;;;23.88;34.26;98461.66;4958617;28;20110;-78
2022/07/11 01:05:30;;;;;;;5.72;0.95;;;;;;;23.80;34.08;98457.38;4959212;28;20162;-78
2022/07/11 01:07:55;;;;;;;3.45;1.00;;;;;;;23.82;34.66;98472.13;4958732;28;20026;-78
2022/07/11 01:10:21;;;;;;;3.88;1.05;;;;;;;23.87;34.47;98466.19;4958666;28;20038;-78
2022/07/11 01:12:47;;;;;;;2.20;1.10;;;;;;;23.75;34.41;98451.84;4958507;28;20042;-78
2022/07/11 01:15:13;;;;;;;1.52;1.00;;;;;;;23.72;34.83;98465.56;4974668;28;20042;-78
2022/07/11 01:17:39;;;;;;;2.20;1.00;;;;;;;23.79;34.49;98474.38;4958313;28;20034;-78
2022/07/11 01:20:05;;;;;;;2.75;1.17;;;;;;;23.75;34.49;98467.81;4958960;28;20034;-78
2022/07/11 01:22:31;;;;;;;1.83;1.10;;;;;;;23.75;34.35;98471.34;4958436;28;20035;-78
2022/07/11 01:24:56;;;;;;;4.32;1.20;;;;;;;23.76;34.44;98480.94;4942276;28;20042;-78
2022/07/11 01:27:22;;;;;;;1.80;1.00;;;;;;;23.64;34.83;98480.78;4974322;28;20107;-78
2022/07/11 01:29:48;;;;;;;2.47;0.95;;;;;;;23.61;34.81;98477.69;4942450;28;20082;-78
2022/07/11 01:32:13;;;;;;;4.32;1.60;;;;;;;23.59;34.95;98474.41;4958337;28;20439;-78
2022/07/11 01:34:39;;;;;;;2.10;1.20;;;;;;;23.62;34.75;98469.47;4958069;28;20054;-77
2022/07/11 01:37:04;;;;;;;5.95;1.13;;;;;;;23.65;34.80;98478.91;4958300;28;20043;-77
2022/07/11 01:39:30;;;;;;;5.20;1.10;;;;;;;23.65;34.64;98469.06;4974219;28;20113;-78
2022/07/11 01:41:59;;;;;;;3.03;1.30;;;;;;;23.55;34.49;98467.88;4940680;28;20129;-79
2022/07/11 01:44:25;;;;;;;1.73;1.00;;;;;;;23.61;34.61;98475.03;4957952;28;20034;-78
2022/07/11 01:46:50;;;;;;;1.90;1.10;;;;;;;23.63;34.40;98470.31;4941553;28;20062;-78
2022/07/11 01:49:15;;;;;;;2.38;1.10;;;;;;;23.52;34.01;98473.63;4975200;28;20482;-78
2022/07/11 01:51:41;;;;;;;1.70;1.00;;;;;;;23.49;34.38;98477.50;4973750;28;20042;-78
2022/07/11 01:54:07;;;;;;;3.70;1.10;;;;;;;23.54;34.62;98474.22;4957938;28;20027;-78
2022/07/11 01:56:33;;;;;;;1.40;1.00;;;;;;;23.55;34.15;98478.53;4957092;28;20047;-78
2022/07/11 01:58:58;;;;;;;1.90;1.10;;;;;;;23.59;34.41;98480.56;4941356;28;20049;-78
2022/07/11 02:01:24;;;;;;;2.35;1.00;;;;;;;23.54;34.33;98488.34;4942344;28;20146;-78
2022/07/11 02:03:50;;;;;;;4.82;1.08;;;;;;;23.48;33.89;98491.84;4957713;28;20042;-78
2022/07/11 02:06:15;;;;;;;4.10;1.48;;;;;;;23.49;34.51;98498.81;4941774;28;20545;-78
2022/07/11 02:08:41;;;;;;;2.45;1.02;;;;;;;23.52;34.41;98493.09;4957425;28;20049;-78
2022/07/11 02:11:07;;;;;;;1.55;1.00;;;;;;;23.52;34.48;98493.09;4957967;28;20108;-78
2022/07/11 02:13:32;;;;;;;1.95;1.05;;;;;;;23.58;34.43;98492.25;4957765;28;20045;-78
2022/07/11 02:15:58;;;;;;;3.88;1.20;;;;;;;23.60;34.18;98498.19;4956896;28;20494;-78
2022/07/11 02:18:23;;;;;;;1.98;1.10;;;;;;;23.62;34.28;98495.31;4956882;28;20109;-78
2022/07/11 02:20:49;;;;;;;3.22;1.10;;;;;;;23.64;33.98;98506.56;4957388;28;20023;-78
2022/07/11 02:23:14;;;;;;;2.38;0.90;;;;;;;23.59;34.02;98482.41;4957159;28;20502;-78
2022/07/11 02:25:40;;;;;;;3.97;1.00;;;;;;;23.59;33.94;98498.41;4957150;28;20042;-78
2022/07/11 02:28:08;;;;;;;1.65;1.00;;;;;;;23.59;34.07;98485.06;4940653;28;20042;-78
2022/07/11 02:30:36;;;;;;;2.13;0.90;;;;;;;23.56;34.02;98493.47;4957379;28;20018;-78
2022/07/11 02:33:03;;;;;;;1.55;1.00;;;;;;;23.54;33.73;98485.69;4941055;28;20039;-78
2022/07/11 02:35:28;;;;;;;1.48;0.90;;;;;;;23.56;33.96;98498.81;4956032;28;20039;-78
2022/07/11 02:37:53;;;;;;;3.15;0.93;;;;;;;23.54;33.88;98498.19;4941033;28;20043;-78
2022/07/11 02:40:19;;;;;;;1.75;0.93;;;;;;;23.53;34.08;98494.72;4974214;28;20045;-79
2022/07/11 02:42:45;;;;;;;2.20;1.00;;;;;;;23.53;34.14;98497.41;4956539;28;20482;-78
2022/07/11 02:45:10;;;;;;;1.77;0.90;;;;;;;23.54;33.90;98499.00;4956801;28;20027;-78
2022/07/11 02:47:38;;;;;;;1.50;1.00;;;;;;;23.50;33.99;98489.81;4956980;28;20066;-77
2022/07/11 02:50:06;;;;;;;2.53;1.02;;;;;;;23.51;33.97;98498.63;4957352;28;20042;-78
2022/07/11 02:52:31;;;;;;;1.40;0.90;;;;;;;23.53;33.97;98501.88;4957053;28;20035;-78
2022/07/11 02:54:58;;;;;;;2.28;1.00;;;;;;;23.55;33.84;98506.00;4974311;28;20085;-79
2022/07/11 02:57:24;;;;;;;1.30;0.80;;;;;;;23.57;33.92;98505.78;4973950;28;20504;-79
2022/07/11 02:59:49;;;;;;;3.30;1.02;;;;;;;23.59;33.84;98509.84;4956584;28;20057;-79
2022/07/11 03:02:15;;;;;;;1.90;1.00;;;;;;;23.58;33.79;98516.25;4940859;28;20034;-78
2022/07/11 03:04:41;;;;;;;2.25;1.20;;;;;;;23.63;33.91;98515.63;4957176;28;20023;-78
2022/07/11 03:07:07;;;;;;;3.45;0.90;;;;;;;23.73;33.39;98518.66;4956901;28;20526;-78
2022/07/11 03:09:32;;;;;;;1.52;0.90;;;;;;;24.14;32.95;98516.75;4956921;28;20041;-78
2022/07/11 03:11:58;;;;;;;2.03;0.90;;;;;;;24.35;32.11;98511.16;4956814;28;20461;-79
2022/07/11 03:14:23;;;;;;;3.90;0.80;;;;;;;24.45;32.23;98518.69;4940508;28;20035;-79
2022/07/11 03:16:49;;;;;;;2.30;0.90;;;;;;;24.95;31.36;98512.69;4973700;28;20089;-79
2022/07/11 03:19:14;;;;;;;1.25;0.82;;;;;;;25.49;30.36;98523.00;4958484;28;20129;-77
2022/07/11 03:21:39;;;;;;;4.07;1.10;;;;;;;26.06;30.31;98518.38;4956442;28;20043;-75
2022/07/11 03:24:05;;;;;;;9.05;1.00;;;;;;;26.67;29.41;98518.47;4972389;28;20030;-76
2022/07/11 03:26:30;;;;;;;55.20;2.35;;;;;;;27.25;28.77;98517.78;4956248;28;20030;-77
2022/07/11 03:28:56;;;;;;;22.58;1.00;;;;;;;27.79;27.37;98515.03;4972376;28;20038;-76
2022/07/11 03:31:21;;;;;;;10.90;0.98;;;;;;;28.31;26.65;98519.66;4956908;28;20066;-76
2022/07/11 03:33:47;;;;;;;4.00;0.80;;;;;;;28.75;25.87;98513.81;4964542;28;20041;-78
2022/07/11 03:36:12;;;;;;;8.15;0.85;;;;;;;29.19;25.64;98524.78;4992845;28;20520;-81
2022/07/11 03:38:38;;;;;;;2.72;0.95;;;;;;;29.56;24.67;98515.41;4978637;28;20496;-71
2022/07/11 03:41:04;;;;;;;2.13;0.82;;;;;;;30.03;24.07;98525.78;4976403;28;20065;-78
2022/07/11 03:43:30;;;;;;;3.08;0.73;;;;;;;30.37;23.16;98525.66;4993611;28;20552;-85
2022/07/11 03:45:55;;;;;;;1.58;0.65;;;;;;;30.75;22.66;98529.31;4994211;28;20037;-77
2022/07/11 03:48:21;;;;;;;3.58;0.75;;;;;;;31.39;22.35;98535.81;4961056;28;20049;-80
2022/07/11 03:50:47;;;;;;;2.60;0.68;;;;;;;31.97;21.61;98537.84;4977212;28;20041;-81
2022/07/11 03:53:13;;;;;;;3.10;0.90;;;;;;;32.44;21.04;98547.81;4993901;28;20022;-81
2022/07/11 03:55:39;;;;;;;4.57;1.10;;;;;;;32.90;20.49;98539.84;4993736;28;20111;-81
2022/07/11 03:58:04;;;;;;;4.45;0.60;;;;;;;33.32;19.56;98546.09;4993518;28;20052;-81
2022/07/11 04:00:30;;;;;;;3.80;0.80;;;;;;;33.75;19.41;98540.41;4977595;28;20040;-81
2022/07/11 04:02:55;;;;;;;1.25;0.88;;;;;;;34.08;18.95;98533.56;4945799;28;20034;-81
2022/07/11 04:05:21;;;;;;;1.92;0.65;;;;;;;34.49;18.70;98543.41;4990199;28;20049;-81
2022/07/11 04:07:46;;;;;;;1.67;0.60;;;;;;;34.82;17.99;98532.94;4976413;28;20030;-80
2022/07/11 04:10:12;;;;;;;3.95;0.73;;;;;;;35.31;17.38;98551.03;4990273;28;20089;-81
2022/07/11 04:12:38;;;;;;;3.90;0.80;;;;;;;35.67;17.20;98543.38;4957886;28;20251;-80
2022/07/11 04:15:06;;;;;;;2.50;0.52;;;;;;;36.07;16.69;98554.09;4974541;28;20054;-81
2022/07/11 04:17:32;;;;;;;2.22;0.77;;;;;;;36.44;16.52;98544.47;4974550;28;20022;-81
2022/07/11 04:19:57;;;;;;;1.27;0.60;;;;;;;36.75;16.10;98547.59;4990062;28;20121;-80
2022/07/11 04:22:24;;;;;;;2.30;0.57;;;;;;;37.15;15.83;98549.16;4990592;28;20038;-81
2022/07/11 04:24:49;;;;;;;2.83;0.70;;;;;;;37.53;15.47;98557.25;4957691;28;20038;-81
2022/07/11 04:27:15;;;;;;;2.08;0.60;;;;;;;37.97;15.00;98543.13;4973990;28;20031;-82
2022/07/11 04:29:40;;;;;;;1.30;0.50;;;;;;;38.34;14.63;98545.94;4957830;28;20038;-80
2022/07/11 04:32:06;;;;;;;0.95;0.60;;;;;;;38.73;14.34;98542.66;4994191;28;20081;-80
2022/07/11 04:34:31;;;;;;;1.85;0.55;;;;;;;39.10;13.70;98542.63;4977314;28;20038;-81
2022/07/11 04:36:57;;;;;;;2.63;0.50;;;;;;;39.46;13.65;98541.72;4993499;28;20042;-81
2022/07/11 04:39:22;;;;;;;2.00;0.60;;;;;;;39.90;13.11;98555.59;4976661;28;20077;-81
2022/07/11 04:41:48;;;;;;;1.38;0.40;;;;;;;40.22;12.83;98557.19;4993423;28;20065;-81
2022/07/11 04:44:13;;;;;;;2.03;0.70;;;;;;;40.57;12.49;98553.72;4977123;28;20038;-81
2022/07/11 04:46:39;;;;;;;1.85;0.52;;;;;;;40.88;12.23;98550.84;4961897;28;20421;-81
2022/07/11 04:49:04;;;;;;;2.67;0.50;;;;;;;41.23;12.01;98548.88;4978537;28;20038;-82
2022/07/11 04:51:30;;;;;;;0.82;0.40;;;;;;;41.58;11.53;98558.97;4978070;28;20038;-81
2022/07/11 04:53:55;;;;;;;1.50;0.40;;;;;;;41.84;11.88;98563.59;4994563;28;20030;-80
2022/07/11 04:56:21;;;;;;;2.53;0.40;;;;;;;42.20;11.12;98543.91;4995360;28;20034;-78
2022/07/11 04:58:46;;;;;;;1.00;0.40;;;;;;;42.43;11.08;98543.59;4978171;28;20473;-79
2022/07/11 05:01:12;;;;;;;3.40;0.70;;;;;;;42.83;10.95;98548.66;4978267;28;20049;-81
2022/07/11 05:03:37;;;;;;;3.00;0.50;;;;;;;43.15;10.76;98543.53;4977270;28;20030;-82
2022/07/11 05:06:04;;;;;;;1.67;0.50;;;;;;;43.48;10.70;98546.25;4971258;28;20073;-81
2022/07/11 05:08:29;;;;;;;4.10;0.73;;;;;;;43.80;10.27;98551.25;4959005;28;20031;-81
2022/07/11 05:10:55;;;;;;;3.10;0.40;;;;;;;44.10;9.91;98554.56;4975678;28;20035;-83
2022/07/11 05:13:21;;;;;;;4.03;0.57;;;;;;;44.43;9.39;98567.38;4958299;28;20397;-80
2022/07/11 05:15:46;;;;;;;5.00;0.40;;;;;;;44.67;10.00;98568.50;4958258;28;20030;-80
2022/07/11 05:18:12;;;;;;;1.40;0.40;;;;;;;44.92;9.70;98566.47;4958800;28;20035;-81
2022/07/11 05:20:37;;;;;;;2.30;0.47;;;;;;;45.13;9.25;98572.56;4958555;28;20295;-81
2022/07/11 05:23:03;;;;;;;5.00;0.40;;;;;;;45.40;9.14;98581.19;4958587;28;20030;-82
2022/07/11 05:25:28;;;;;;;3.23;0.50;;;;;;;45.61;9.19;98585.66;4958352;28;20039;-81
2022/07/11 05:27:54;;;;;;;2.07;0.40;;;;;;;45.79;9.38;98578.66;4958569;28;20549;-79
2022/07/11 05:30:19;;;;;;;4.90;0.40;;;;;;;45.97;8.94;98578.28;4975354;28;20026;-80
2022/07/11 05:32:45;;;;;;;0.53;0.30;;;;;;;46.21;9.11;98582.81;4957452;28;20038;-79
2022/07/11 05:35:11;;;;;;;2.53;0.40;;;;;;;46.32;8.49;98583.88;4957877;28;20490;-82
2022/07/11 05:37:36;;;;;;;0.60;0.40;;;;;;;46.53;8.54;98597.34;4941857;28;20566;-80
2022/07/11 05:40:02;;;;;;;2.00;0.50;;;;;;;46.59;8.41;98595.09;4957734;28;20057;-81
2022/07/11 05:42:28;;;;;;;5.10;0.50;;;;;;;46.68;8.87;98592.16;4950250;28;20098;-77
2022/07/11 05:44:54;;;;;;;9.07;0.60;;;;;;;46.83;8.29;98604.28;4999656;28;20289;-79
2022/07/11 05:47:19;;;;;;;2.15;0.60;;;;;;;47.21;8.25;98608.19;4980749;28;20461;-77
2022/07/11 05:49:45;;;;;;;3.93;0.60;;;;;;;47.53;8.17;98608.84;4995610;28;20038;-77
2022/07/11 05:52:10;;;;;;;3.17;0.70;;;;;;;47.63;8.04;98608.22;4993253;28;20031;-78
2022/07/11 05:54:36;;;;;;;1.47;0.70;;;;;;;47.98;7.78;98612.78;4994522;28;20466;-77
2022/07/11 05:57:02;;;;;;;3.73;0.83;;;;;;;48.27;7.77;98618.78;4976814;28;20042;-77
2022/07/11 05:59:28;;;;;;;3.22;0.60;;;;;;;48.45;7.81;98616.28;4977166;28;20457;-76
2022/07/11 06:01:54;;;;;;;0.90;0.50;;;;;;;48.63;8.04;98624.84;4994495;28;20034;-78
2022/07/11 06:04:19;;;;;;;1.95;0.60;;;;;;;48.77;7.64;98623.41;4993168;28;20485;-81
2022/07/11 06:06:45;;;;;;;1.80;0.40;;;;;;;48.76;7.88;98624.59;4961915;28;20525;-77
2022/07/11 06:09:10;;;;;;;2.20;0.53;;;;;;;48.85;7.88;98627.91;4993928;28;20322;-79
2022/07/11 06:11:36;;;;;;;2.53;0.60;;;;;;;48.94;7.35;98619.31;4993336;28;20414;-76
2022/07/11 06:14:01;;;;;;;1.30;0.50;;;;;;;48.99;7.39;98628.06;4961238;28;20050;-83
2022/07/11 06:16:27;;;;;;;2.73;0.47;;;;;;;49.03;7.47;98625.38;4976823;28;20132;-84
2022/07/11 06:18:52;;;;;;;3.67;0.50;;;;;;;49.00;7.01;98624.13;4981269;28;20033;-80
2022/07/11 06:21:20;;;;;;;2.60;0.40;;;;;;;49.03;7.31;98620.59;4957852;28;20034;-84
2022/07/11 06:23:45;;;;;;;1.52;0.50;;;;;;;49.01;7.14;98625.75;4973214;28;20324;-84
2022/07/11 06:26:11;;;;;;;0.77;0.40;;;;;;;49.01;6.95;98634.06;4957521;28;20474;-80
2022/07/11 06:28:38;;;;;;;5.15;0.50;;;;;;;49.02;6.87;98632.06;4958625;28;20103;-83
2022/07/11 06:31:03;;;;;;;1.38;0.40;;;;;;;49.01;7.16;98627.69;4958080;28;20070;-89
2022/07/11 06:33:29;;;;;;;8.13;0.40;;;;;;;48.97;6.58;98635.19;4960500;28;20478;-87
2022/07/11 06:35:54;;;;;;;0.75;0.35;;;;;;;48.94;6.86;98639.50;4944935;28;20035;-85
2022/07/11 06:38:20;;;;;;;1.70;0.30;;;;;;;48.82;7.06;98634.19;4959413;28;20038;-88
2022/07/11 06:40:46;;;;;;;2.15;0.35;;;;;;;48.79;6.76;98637.72;4943787;28;20299;-89
2022/07/11 06:43:12;;;;;;;5.70;0.35;;;;;;;48.72;7.22;98647.50;4974183;28;20026;-81
2022/07/11 06:45:37;;;;;;;1.00;0.40;;;;;;;48.66;7.13;98651.75;4956572;28;20219;-81
2022/07/11 06:48:04;;;;;;;5.10;0.30;;;;;;;48.49;7.13;98649.53;4974877;28;20042;-84
2022/07/11 06:50:30;;;;;;;3.20;0.43;;;;;;;48.43;7.21;98648.28;4973093;28;20491;-78
2022/07/11 06:52:55;;;;;;;1.50;0.40;;;;;;;48.33;7.31;98649.69;4970702;28;20030;-77
2022/07/11 06:55:21;;;;;;;1.20;0.30;;;;;;;48.18;7.02;98657.78;4973199;28;20482;-77
2022/07/11 06:57:46;;;;;;;0.60;0.27;;;;;;;48.15;7.36;98649.41;4960619;28;20042;-79
2022/07/11 07:00:12;;;;;;;1.17;0.30;;;;;;;48.01;7.47;98664.59;4960106;28;20473;-79
2022/07/11 07:02:38;;;;;;;1.90;0.30;;;;;;;47.91;7.72;98654.16;4976479;28;20038;-78
2022/07/11 07:05:04;;;;;;;1.63;0.40;;;;;;;47.78;7.60;98661.06;4942595;28;20478;-79
2022/07/11 07:07:30;;;;;;;3.72;0.50;;;;;;;47.69;7.23;98654.97;4968513;28;20454;-79
2022/07/11 07:09:55;;;;;;;2.60;0.30;;;;;;;47.58;7.50;98654.72;4943982;28;20045;-79
2022/07/11 07:12:21;;;;;;;3.20;0.33;;;;;;;47.43;8.01;98659.19;4993390;28;20030;-78
2022/07/11 07:14:47;;;;;;;2.37;0.40;;;;;;;47.29;7.46;98662.47;4959922;28;20026;-78
2022/07/11 07:17:12;;;;;;;7.23;0.60;;;;;;;47.18;7.89;98662.25;4960169;28;20113;-78
2022/07/11 07:19:38;;;;;;;1.57;0.60;;;;;;;47.05;7.77;98669.06;4960369;28;20054;-79
2022/07/11 07:22:05;;;;;;;1.63;0.40;;;;;;;46.93;8.06;98658.97;4959827;28;20055;-78
2022/07/11 07:24:31;;;;;;;4.40;0.40;;;;;;;46.80;7.77;98661.03;4960778;28;20037;-78
2022/07/11 07:26:57;;;;;;;1.73;0.40;;;;;;;46.66;8.34;98661.53;4959925;28;20030;-78
2022/07/11 07:29:22;;;;;;;2.20;0.40;;;;;;;46.53;8.40;98658.06;4975289;28;20070;-78
2022/07/11 07:31:49;;;;;;;1.83;0.40;;;;;;;46.37;7.94;98660.84;4959900;28;20540;-82
2022/07/11 07:34:14;;;;;;;1.63;0.63;;;;;;;46.28;8.16;98651.97;4976427;28;20081;-79
2022/07/11 07:36:40;;;;;;;3.77;0.40;;;;;;;46.17;8.56;98651.69;4959638;28;20137;-78
2022/07/11 07:39:05;;;;;;;1.00;0.23;;;;;;;46.00;8.49;98644.56;4992963;28;20035;-77
2022/07/11 07:41:31;;;;;;;1.37;0.37;;;;;;;45.93;8.47;98665.63;4975558;28;20077;-78
2022/07/11 07:43:56;;;;;;;1.90;0.40;;;;;;;45.80;8.21;98660.22;4975823;28;20026;-78
2022/07/11 07:46:22;;;;;;;3.20;0.40;;;;;;;45.67;8.25;98653.16;4975587;28;20026;-79
2022/07/11 07:48:47;;;;;;;1.27;0.20;;;;;;;45.49;8.44;98661.75;4975094;28;20038;-79
2022/07/11 07:51:13;;;;;;;1.60;0.37;;;;;;;45.39;8.66;98659.50;4940658;28;20487;-78
2022/07/11 07:53:38;;;;;;;1.20;0.40;;;;;;;45.26;8.58;98657.91;4975431;28;20105;-78
2022/07/11 07:56:05;;;;;;;2.80;0.40;;;;;;;45.14;8.85;98665.09;4959868;28;20038;-77
2022/07/11 07:58:30;;;;;;;2.88;0.55;;;;;;;45.05;8.91;98677.41;4975573;28;20446;-77
2022/07/11 08:03:40;;;;;;;3.10;0.30;;;;;;;44.77;9.04;98665.16;4978356;28;20057;-78
2022/07/11 08:06:05;;;;;;;3.60;0.30;;;;;;;44.69;9.16;98670.78;4976595;28;20031;-79
2022/07/11 08:08:31;;;;;;;4.10;0.40;;;;;;;44.57;9.48;98677.88;4995996;28;20080;-78
2022/07/11 08:10:59;;;;;;;2.53;0.30;;;;;;;44.45;9.41;98662.16;4978834;28;20034;-79
2022/07/11 08:13:25;;;;;;;1.88;0.30;;;;;;;44.35;9.64;98653.59;4963857;28;20037;-78
2022/07/11 08:15:50;;;;;;;1.10;0.28;;;;;;;44.28;9.55;98654.16;4946951;28;20035;-78
2022/07/11 08:18:16;;;;;;;7.27;0.43;;;;;;;44.17;9.75;98659.31;4994440;28;20039;-77
2022/07/11 08:20:41;;;;;;;1.77;0.33;;;;;;;44.06;9.65;98650.69;4962641;28;20112;-78
2022/07/11 08:23:07;;;;;;;1.60;0.30;;;;;;;43.98;9.59;98657.13;4996439;28;20442;-78
2022/07/11 08:25:32;;;;;;;2.23;0.27;;;;;;;43.84;10.09;98649.19;4978806;28;20482;-77
2022/07/11 08:27:58;;;;;;;1.13;0.33;;;;;;;43.78;10.07;98652.47;4979147;28;20069;-78
2022/07/11 08:30:25;;;;;;;0.40;0.20;;;;;;;43.67;10.13;98647.41;4977864;28;20141;-78
2022/07/11 08:32:51;;;;;;;1.77;0.40;;;;;;;43.61;10.38;98654.25;4946893;28;20061;-77
2022/07/11 08:35:16;;;;;;;1.23;0.30;;;;;;;43.54;10.24;98648.53;4946402;28;20092;-79
2022/07/11 08:37:42;;;;;;;0.63;0.20;;;;;;;43.44;10.05;98654.41;4978863;28;20501;-78
2022/07/11 08:40:08;;;;;;;0.97;0.37;;;;;;;43.32;10.22;98638.69;4978116;28;20572;-79
2022/07/11 08:42:37;;;;;;;1.67;0.30;;;;;;;43.25;10.43;98643.91;4962363;28;20042;-78
2022/07/11 08:45:03;;;;;;;1.42;0.35;;;;;;;43.10;10.53;98629.66;4962642;28;20037;-79
2022/07/11 08:47:29;;;;;;;0.53;0.30;;;;;;;42.61;10.81;98635.66;4962454;28;20026;-76
2022/07/11 08:49:54;;;;;;;2.95;0.40;;;;;;;42.32;10.74;98638.38;4962311;28;20539;-77
2022/07/11 08:52:20;;;;;;;3.38;0.22;;;;;;;42.36;10.55;98642.88;4962495;28;20042;-77
2022/07/11 08:54:46;;;;;;;1.88;0.40;;;;;;;42.32;10.61;98630.97;4978278;28;20137;-77
2022/07/11 08:57:12;;;;;;;1.58;0.38;;;;;;;42.31;10.58;98637.56;4962553;28;20413;-78
2022/07/11 08:59:37;;;;;;;1.95;0.40;;;;;;;42.26;10.59;98635.81;4945887;28;20461;-80
2022/07/11 09:02:03;;;;;;;1.08;0.38;;;;;;;42.17;11.01;98640.53;4977921;28;20062;-78
2022/07/11 09:04:30;;;;;;;2.30;0.37;;;;;;;42.12;11.16;98638.75;4962000;28;20437;-78
2022/07/11 09:06:56;;;;;;;3.05;0.30;;;;;;;42.06;11.13;98629.09;4978501;28;20121;-78
2022/07/11 09:09:21;;;;;;;1.17;0.33;;;;;;;41.96;10.99;98629.47;4961973;28;20058;-78
2022/07/11 09:11:53;;;;;;;0.90;0.30;;;;;;;41.53;11.51;98627.63;4978080;28;20110;-78
2022/07/11 09:14:25;;;;;;;1.02;0.28;;;;;;;41.05;11.60;98632.16;4961897;28;20096;-78
2022/07/11 09:16:53;;;;;;;3.05;0.30;;;;;;;40.58;11.34;98630.00;4977455;28;20097;-78
2022/07/11 09:19:25;;;;;;;1.52;0.28;;;;;;;40.15;11.70;98628.72;4977633;28;20034;-79
2022/07/11 09:27:49;;;;;;;1.45;0.55;;;;;;;39.73;12.14;98633.63;4967073;28;20030;-78
2022/07/11 09:30:26;;;;;;;3.75;0.47;;;;;;;39.84;11.97;98634.19;4995739;28;20504;-76
2022/07/11 09:33:02;;;;;;;0.98;0.38;;;;;;;39.95;12.21;98621.84;4995451;28;20035;-77
2022/07/11 09:35:33;;;;;;;2.20;0.50;;;;;;;39.84;12.49;98622.41;4961510;28;20027;-77
2022/07/11 09:37:58;;;;;;;0.95;0.43;;;;;;;39.72;12.51;98625.75;4994733;28;20269;-78
2022/07/11 09:40:25;;;;;;;0.85;0.40;;;;;;;39.39;12.24;98624.06;4961831;28;20049;-78
2022/07/11 09:42:55;;;;;;;1.27;0.40;;;;;;;39.10;12.53;98620.97;4978467;28;20030;-80
2022/07/11 09:45:22;;;;;;;2.10;0.38;;;;;;;38.84;12.31;98635.16;4961543;28;20062;-78
2022/07/11 09:47:49;;;;;;;4.28;0.47;;;;;;;38.54;12.43;98626.50;4961500;28;20554;-79
2022/07/11 09:50:18;;;;;;;2.92;0.60;;;;;;;38.30;12.99;98635.72;4961206;28;20548;-78
2022/07/11 09:53:06;;;;;;;7.10;0.60;;;;;;;37.99;13.16;98633.53;4977654;28;20450;-78
2022/07/11 09:55:36;;;;;;;2.88;0.50;;;;;;;37.73;13.25;98633.16;4978966;28;20045;-78
2022/07/11 09:58:06;;;;;;;1.88;0.43;;;;;;;37.48;13.71;98634.41;4961429;28;20030;-79
2022/07/11 10:00:32;;;;;;;3.20;0.50;;;;;;;37.26;13.84;98629.56;4961415;28;20393;-80
2022/07/11 10:02:58;;;;;;;3.40;0.50;;;;;;;37.10;14.13;98637.09;4961474;28;20030;-78
2022/07/11 10:05:24;;;;;;;3.38;0.47;;;;;;;36.92;14.51;98636.00;4977005;28;20800;-77
2022/07/11 10:07:50;;;;;;;3.33;0.50;;;;;;;36.78;14.67;98635.91;4960509;28;20041;-79
2022/07/11 10:10:16;;;;;;;1.50;0.63;;;;;;;36.67;15.01;98643.38;4977154;28;20394;-78
2022/07/11 10:12:44;;;;;;;5.90;0.95;;;;;;;36.53;15.42;98634.31;4977045;28;20050;-79
2022/07/11 10:15:10;;;;;;;5.97;0.70;;;;;;;36.37;15.15;98634.50;4961083;28;20026;-79
2022/07/11 10:17:57;;;;;;;1.30;0.40;;;;;;;36.18;15.76;98628.16;4960940;28;20089;-80
2022/07/11 10:20:41;;;;;;;1.88;0.60;;;;;;;36.05;15.67;98644.03;4993938;28;20030;-78
2022/07/11 10:23:22;;;;;;;2.90;0.50;;;;;;;35.86;15.76;98635.81;4976467;28;20042;-80
2022/07/11 10:26:09;;;;;;;7.28;0.65;;;;;;;35.74;15.86;98637.25;4994276;28;20489;-78
2022/07/11 10:28:51;;;;;;;1.77;0.50;;;;;;;35.61;16.19;98634.09;4968904;28;20030;-79
2022/07/11 10:31:24;;;;;;;3.42;0.60;;;;;;;35.44;16.08;98639.97;4960495;28;20062;-77
2022/07/11 10:34:03;;;;;;;1.42;0.65;;;;;;;35.34;16.40;98631.88;4961429;28;20092;-78
2022/07/11 10:36:30;;;;;;;2.28;0.50;;;;;;;35.46;15.92;98637.75;4960738;28;20049;-78
2022/07/11 10:39:32;;;;;;;1.55;0.40;;;;;;;35.49;16.08;98634.47;4960921;28;20034;-80
2022/07/11 10:41:59;;;;;;;3.00;0.50;;;;;;;35.57;15.89;98627.63;4916018;29;20135;-80
2022/07/11 10:44:25;;;;;;;2.93;0.60;;;;;;;35.67;16.07;98630.25;4899134;29;20123;-77
2022/07/11 10:46:51;;;;;;;1.33;0.35;;;;;;;35.79;16.04;98639.97;4883914;29;20043;-78
2022/07/11 10:49:21;;;;;;;1.10;0.30;;;;;;;35.81;15.64;98635.06;4883619;29;20140;-78
2022/07/11 10:51:49;;;;;;;2.30;0.70;;;;;;;35.81;14.96;98632.34;4884379;29;20032;-78
2022/07/11 10:54:42;;;;;;;0.75;0.40;;;;;;;35.61;15.25;98639.53;4916392;29;20554;-77
2022/07/11 10:57:19;;;;;;;3.38;0.40;;;;;;;35.54;15.33;98636.34;4914800;29;20381;-79
2022/07/11 11:00:03;;;;;;;2.72;0.50;;;;;;;35.51;15.13;98628.78;4883607;29;20040;-79
2022/07/11 11:02:30;;;;;;;3.85;0.50;;;;;;;35.49;14.85;98626.34;4914673;29;20071;-80
2022/07/11 11:04:59;;;;;;;1.38;0.50;;;;;;;35.54;14.84;98630.13;4898420;29;20091;-79
2022/07/11 11:07:28;;;;;;;4.00;0.60;;;;;;;35.57;14.40;98629.56;4899239;29;20024;-77
2022/07/11 11:09:53;;;;;;;1.30;0.45;;;;;;;35.44;14.99;98626.38;4898639;29;20048;-78
2022/07/11 11:12:20;;;;;;;1.17;0.43;;;;;;;35.42;15.30;98644.03;4898619;29;20039;-78
2022/07/11 11:14:45;;;;;;;1.45;0.60;;;;;;;35.29;14.97;98632.72;4916023;28;20448;-77
2022/07/11 11:17:36;;;;;;;2.35;0.47;;;;;;;35.40;15.29;98633.47;4960559;28;20037;-77
2022/07/11 11:20:03;;;;;;;2.38;0.57;;;;;;;35.43;14.93;98634.81;4976183;28;20018;-78
2022/07/11 11:22:29;;;;;;;2.90;0.50;;;;;;;35.46;14.95;98629.63;4960535;28;20054;-77
2022/07/11 11:24:55;;;;;;;3.17;0.50;;;;;;;35.48;15.06;98627.44;4993247;28;20030;-78
2022/07/11 11:27:25;;;;;;;1.60;0.52;;;;;;;35.44;14.96;98633.69;4975845;28;20387;-79
2022/07/11 11:29:53;;;;;;;0.95;0.35;;;;;;;35.37;14.66;98623.19;4960054;28;20446;-79
2022/07/11 11:32:19;;;;;;;1.88;0.43;;;;;;;35.36;14.78;98620.75;4959934;28;20085;-79
2022/07/11 11:34:44;;;;;;;0.63;0.43;;;;;;;35.22;14.82;98615.13;4959957;28;20069;-78
2022/07/11 11:37:10;;;;;;;2.10;0.40;;;;;;;35.22;14.20;98628.69;4944110;28;20058;-79
2022/07/11 11:39:38;;;;;;;4.55;0.60;;;;;;;35.15;14.36;98620.88;4972498;28;20038;-79
2022/07/11 11:42:06;;;;;;;1.10;0.60;;;;;;;35.08;14.39;98623.09;4976926;28;20089;-79
2022/07/11 11:44:32;;;;;;;;;;;;;;;34.92;14.57;98612.34;4964145;28;20515;-77